Norwegian Breakaway — C6ZJ3 — position and weather

sailwx.info

Track history (hours):
 
Tides and Currents Weather Stations Pressure Air Temp Water Temp Dewpoint Dewpoint Depression Visibility Wind Speed Wind Dir Waves Ship Positions

Norwegian Breakaway

Last reported at 2017-Apr-26 08:00 UTC. Time now 2017-Apr-27 18:53 UTC.
Position N 32°12' W 064°24'.

Length 325 m; draft 8.6 m.

Type: Ship. MMSI: 311050800.

Wind from 140 at 23 knots

Barometer 1019.0 mb
Air temperature 21.0 ° C
Visibility: greater than 2.2 NM
Dewpoint 21.0 ° C
Water temperature 23.0 ° C

Date/timePositionNaut miles runAvg speedWind from/ knotsBaromVisibWave heightAir tempDewpointWater temp
2017-Apr-26 08:00N 32°12' W 064°24'51 4.2 140 / 231019.0 2.2 21.021.023.0
2017-Apr-25 20:00N 32°48' W 065°06'16914.1 160 / 211020.0 2.2 21.021.023.0
2017-Apr-25 08:00N 34°48' W 067°30'38313.7 150 / 281018.0 2.2 20.020.023.0
2017-Apr-24 04:02N 39°32' W 072°53'1815.3
2017-Apr-24 02:54N 39°46' W 073°06'5213.0
2017-Apr-23 22:55N 40°26' W 073°48'4 8.9
2017-Apr-23 22:30N 40°28' W 073°52'612.2
2017-Apr-23 22:00N 40°31' W 073°59'816.8
2017-Apr-23 21:30N 40°39' W 074°03'714.6
2017-Apr-23 21:00N 40°46' W 074°01'1 1.5
2017-Apr-23 20:30N 40°46' W 073°60'0 0.0
2017-Apr-23 20:00N 40°46' W 073°60'0 0.0
2017-Apr-23 19:30N 40°46' W 073°60'0 0.0
2017-Apr-23 19:00N 40°46' W 073°60'0 0.0
2017-Apr-23 18:30N 40°46' W 073°60'0 0.0
2017-Apr-23 18:00N 40°46' W 073°60'0 0.0
2017-Apr-23 17:30N 40°46' W 073°60'0 0.0
2017-Apr-23 17:00N 40°46' W 073°60'0 0.0
2017-Apr-23 16:30N 40°46' W 073°60'0 0.0
2017-Apr-23 16:00N 40°46' W 073°60'0 0.0
2017-Apr-23 15:30N 40°46' W 073°60'0 0.0
2017-Apr-23 15:00N 40°46' W 073°60'0 0.0
2017-Apr-23 14:00N 40°46' W 073°60'0 0.0
2017-Apr-23 13:30N 40°46' W 073°60'0 0.0
2017-Apr-23 13:00N 40°46' W 073°60'0 0.0
2017-Apr-23 12:30N 40°46' W 073°60'0 0.0
2017-Apr-23 12:00N 40°46' W 073°60'0 0.0
2017-Apr-23 11:30N 40°46' W 073°60'0 0.0
2017-Apr-23 11:00N 40°46' W 073°60'0 0.2
2017-Apr-23 10:30N 40°46' W 074°00'3 6.8
2017-Apr-23 10:01N 40°43' W 074°01'714.3
2017-Apr-23 09:30N 40°36' W 074°02'816.2
2017-Apr-23 09:00N 40°30' W 073°55'612.3
2017-Apr-23 08:30N 40°27' W 073°48'4 8.3
2017-Apr-23 08:00N 40°23' W 073°46'5 9.8
2017-Apr-23 07:27N 40°17' W 073°46'2810.5
2017-Apr-23 04:50N 39°50' W 073°43'713.0
2017-Apr-23 04:18N 39°43' W 073°42'3813.2
2017-Apr-23 01:23N 39°06' W 073°53'10914.7
2017-Apr-22 18:00N 37°18' W 074°12'13515.0 050 / 121013.0 14.012.214.0
2017-Apr-22 09:00N 35°06' W 074°48'5516.0 270 / 331013.0 2.2 23.021.528.0
2017-Apr-22 05:32N 34°20' W 075°25'116.7
2017-Apr-22 05:30N 34°19' W 075°25'13115.4
2017-Apr-21 21:00N 32°18' W 076°24'22218.5 250 / 181017.0 2.2 27.025.628.0
2017-Apr-21 09:00N 28°36' W 076°30'220 9.2 100 / 171019.0 2.2 21.019.427.0
2017-Apr-20 09:00N 25°00' W 077°18'129 5.4 090 / 1501019.0 2.2 23.021.526.0
2017-Apr-19 09:00N 26°30' W 079°00'224 9.3 080 / 231020.0 5.4 22.020.527.0
2017-Apr-18 09:00N 30°12' W 078°30'23319.4 160 / 151020.0 2.2 22.018.926.0
2017-Apr-17 21:00N 33°36' W 076°18'6716.3 280 / 141019.0 2.2 24.022.527.0
2017-Apr-17 16:54N 34°34' W 075°38'15119.0
2017-Apr-17 09:00N 36°54' W 074°30'14719.7 250 / 301017.0 2.2 14.010.212.0
2017-Apr-17 01:32N 39°19' W 073°57'119.2
2017-Apr-17 01:29N 39°20' W 073°57'917.7
2017-Apr-17 01:00N 39°28' W 073°54'917.0
2017-Apr-17 00:29N 39°37' W 073°52'816.9
2017-Apr-17 00:00N 39°45' W 073°51'816.8
2017-Apr-16 23:30N 39°53' W 073°51'2513.0
2017-Apr-16 21:33N 40°19' W 073°49'2 9.9
2017-Apr-16 21:20N 40°21' W 073°49'3 9.9
2017-Apr-16 21:00N 40°24' W 073°48'6764.0
2017-Apr-16 21:00N 40°18' W 073°48'1122.2 260 / 261010.0 2.2 25.025.011.0
2017-Apr-16 20:30N 40°28' W 073°52'816.2
2017-Apr-16 20:00N 40°33' W 074°02'816.3
2017-Apr-16 19:30N 40°41' W 074°02'611.4
2017-Apr-16 19:00N 40°46' W 074°00'0 0.4
2017-Apr-16 18:30N 40°46' W 073°60'0 0.0
2017-Apr-16 17:57N 40°46' W 073°60'0 0.0
2017-Apr-16 17:30N 40°46' W 073°60'0 0.0
2017-Apr-16 17:00N 40°46' W 073°60'0 0.0
2017-Apr-16 16:27N 40°46' W 073°60'0 0.0
2017-Apr-16 16:00N 40°46' W 073°60'0 0.0
2017-Apr-16 15:30N 40°46' W 073°60'0 0.0
2017-Apr-16 15:00N 40°46' W 073°60'0 0.0
2017-Apr-16 14:30N 40°46' W 073°60'0 0.0
2017-Apr-16 13:30N 40°46' W 073°60'0 0.0
2017-Apr-16 13:00N 40°46' W 073°60'0 0.0
2017-Apr-16 12:29N 40°46' W 073°60'0 0.0
2017-Apr-16 11:58N 40°46' W 073°60'0 0.0
2017-Apr-16 11:28N 40°46' W 073°60'0 0.0
2017-Apr-16 10:58N 40°46' W 073°60'0 0.0
2017-Apr-16 10:25N 40°46' W 073°60'0 0.0
2017-Apr-16 10:00N 40°46' W 073°60'0 0.0
2017-Apr-16 09:30N 40°46' W 073°60'0 0.0
2017-Apr-16 09:00N 40°46' W 073°60'0 0.0
2017-Apr-16 08:30N 40°46' W 073°60'0 0.5
2017-Apr-16 08:00N 40°46' W 074°00'  
Track history (hours):
 
Tides and Currents Weather Stations Pressure Air Temp Water Temp Dewpoint Dewpoint Depression Visibility Wind Speed Wind Dir Waves Ship Positions

Norwegian Breakaway

Last reported at 2017-Apr-26 08:00 UTC. Time now 2017-Apr-27 18:53 UTC.
Position N 32°12' W 064°24'.

Length 325 m; draft 8.6 m.

Type: Ship. MMSI: 311050800.

Wind from 140 at 23 knots

Barometer 1019.0 mb
Air temperature 21.0 ° C
Visibility: greater than 2.2 NM
Dewpoint 21.0 ° C
Water temperature 23.0 ° C

Date/timePositionNaut miles runAvg speedWind from/ knotsBaromVisibWave heightAir tempDewpointWater temp
2017-Apr-26 08:00N 32°12' W 064°24'51 4.2 140 / 231019.0 2.2 21.021.023.0
2017-Apr-25 20:00N 32°48' W 065°06'16914.1 160 / 211020.0 2.2 21.021.023.0
2017-Apr-25 08:00N 34°48' W 067°30'38313.7 150 / 281018.0 2.2 20.020.023.0
2017-Apr-24 04:02N 39°32' W 072°53'1815.3
2017-Apr-24 02:54N 39°46' W 073°06'5213.0
2017-Apr-23 22:55N 40°26' W 073°48'4 8.9
2017-Apr-23 22:30N 40°28' W 073°52'612.2
2017-Apr-23 22:00N 40°31' W 073°59'816.8
2017-Apr-23 21:30N 40°39' W 074°03'714.6
2017-Apr-23 21:00N 40°46' W 074°01'1 1.5
2017-Apr-23 20:30N 40°46' W 073°60'0 0.0
2017-Apr-23 20:00N 40°46' W 073°60'0 0.0
2017-Apr-23 19:30N 40°46' W 073°60'0 0.0
2017-Apr-23 19:00N 40°46' W 073°60'0 0.0
2017-Apr-23 18:30N 40°46' W 073°60'0 0.0
2017-Apr-23 18:00N 40°46' W 073°60'0 0.0
2017-Apr-23 17:30N 40°46' W 073°60'0 0.0
2017-Apr-23 17:00N 40°46' W 073°60'0 0.0
2017-Apr-23 16:30N 40°46' W 073°60'0 0.0
2017-Apr-23 16:00N 40°46' W 073°60'0 0.0
2017-Apr-23 15:30N 40°46' W 073°60'0 0.0
2017-Apr-23 15:00N 40°46' W 073°60'0 0.0
2017-Apr-23 14:00N 40°46' W 073°60'0 0.0
2017-Apr-23 13:30N 40°46' W 073°60'0 0.0
2017-Apr-23 13:00N 40°46' W 073°60'0 0.0
2017-Apr-23 12:30N 40°46' W 073°60'0 0.0
2017-Apr-23 12:00N 40°46' W 073°60'0 0.0
2017-Apr-23 11:30N 40°46' W 073°60'0 0.0
2017-Apr-23 11:00N 40°46' W 073°60'0 0.2
2017-Apr-23 10:30N 40°46' W 074°00'3 6.8
2017-Apr-23 10:01N 40°43' W 074°01'714.3
2017-Apr-23 09:30N 40°36' W 074°02'816.2
2017-Apr-23 09:00N 40°30' W 073°55'612.3
2017-Apr-23 08:30N 40°27' W 073°48'4 8.3
2017-Apr-23 08:00N 40°23' W 073°46'5 9.8
2017-Apr-23 07:27N 40°17' W 073°46'2810.5
2017-Apr-23 04:50N 39°50' W 073°43'713.0
2017-Apr-23 04:18N 39°43' W 073°42'3813.2
2017-Apr-23 01:23N 39°06' W 073°53'10914.7
2017-Apr-22 18:00N 37°18' W 074°12'13515.0 050 / 121013.0 14.012.214.0
2017-Apr-22 09:00N 35°06' W 074°48'5516.0 270 / 331013.0 2.2 23.021.528.0
2017-Apr-22 05:32N 34°20' W 075°25'116.7
2017-Apr-22 05:30N 34°19' W 075°25'13115.4
2017-Apr-21 21:00N 32°18' W 076°24'22218.5 250 / 181017.0 2.2 27.025.628.0
2017-Apr-21 09:00N 28°36' W 076°30'220 9.2 100 / 171019.0 2.2 21.019.427.0
2017-Apr-20 09:00N 25°00' W 077°18'129 5.4 090 / 1501019.0 2.2 23.021.526.0
2017-Apr-19 09:00N 26°30' W 079°00'224 9.3 080 / 231020.0 5.4 22.020.527.0
2017-Apr-18 09:00N 30°12' W 078°30'23319.4 160 / 151020.0 2.2 22.018.926.0
2017-Apr-17 21:00N 33°36' W 076°18'6716.3 280 / 141019.0 2.2 24.022.527.0
2017-Apr-17 16:54N 34°34' W 075°38'15119.0
2017-Apr-17 09:00N 36°54' W 074°30'14719.7 250 / 301017.0 2.2 14.010.212.0
2017-Apr-17 01:32N 39°19' W 073°57'119.2
2017-Apr-17 01:29N 39°20' W 073°57'917.7
2017-Apr-17 01:00N 39°28' W 073°54'917.0
2017-Apr-17 00:29N 39°37' W 073°52'816.9
2017-Apr-17 00:00N 39°45' W 073°51'816.8
2017-Apr-16 23:30N 39°53' W 073°51'2513.0
2017-Apr-16 21:33N 40°19' W 073°49'2 9.9
2017-Apr-16 21:20N 40°21' W 073°49'3 9.9
2017-Apr-16 21:00N 40°24' W 073°48'6764.0
2017-Apr-16 21:00N 40°18' W 073°48'1122.2 260 / 261010.0 2.2 25.025.011.0
2017-Apr-16 20:30N 40°28' W 073°52'816.2
2017-Apr-16 20:00N 40°33' W 074°02'816.3
2017-Apr-16 19:30N 40°41' W 074°02'611.4
2017-Apr-16 19:00N 40°46' W 074°00'0 0.4
2017-Apr-16 18:30N 40°46' W 073°60'0 0.0
2017-Apr-16 17:57N 40°46' W 073°60'0 0.0
2017-Apr-16 17:30N 40°46' W 073°60'0 0.0
2017-Apr-16 17:00N 40°46' W 073°60'0 0.0
2017-Apr-16 16:27N 40°46' W 073°60'0 0.0
2017-Apr-16 16:00N 40°46' W 073°60'0 0.0
2017-Apr-16 15:30N 40°46' W 073°60'0 0.0
2017-Apr-16 15:00N 40°46' W 073°60'0 0.0
2017-Apr-16 14:30N 40°46' W 073°60'0 0.0
2017-Apr-16 13:30N 40°46' W 073°60'0 0.0
2017-Apr-16 13:00N 40°46' W 073°60'0 0.0
2017-Apr-16 12:29N 40°46' W 073°60'0 0.0
2017-Apr-16 11:58N 40°46' W 073°60'0 0.0
2017-Apr-16 11:28N 40°46' W 073°60'0 0.0
2017-Apr-16 10:58N 40°46' W 073°60'0 0.0
2017-Apr-16 10:25N 40°46' W 073°60'0 0.0
2017-Apr-16 10:00N 40°46' W 073°60'0 0.0
2017-Apr-16 09:30N 40°46' W 073°60'0 0.0
2017-Apr-16 09:00N 40°46' W 073°60'0 0.0
2017-Apr-16 08:30N 40°46' W 073°60'0 0.5
2017-Apr-16 08:00N 40°46' W 074°00'  

Dump ship's entire track history